Time;durP1;ratioP1;P1;durP2;ratioP2;P2;SDS_P1;SDS_P2;PMS_P1;PMS_P2;Temp;Humidity;BMP_temperature;BMP_pressure;BME280_temperature;BME280_humidity;BME280_pressure;Samples;Min_cycle;Max_cycle;Signal;HPM_P1;HPM_P2
2022/06/25 00:01:48;;;;;;;6.03;4.07;;;;;;;20.28;52.40;100001.66;5123688;28;20031;-71
2022/06/25 00:06:58;;;;;;;5.22;4.72;;;;;;;20.26;52.81;100002.66;5124094;28;20060;-70
2022/06/25 00:09:24;;;;;;;6.28;5.43;;;;;;;20.18;53.01;100003.09;5123858;28;20047;-70
2022/06/25 00:14:33;;;;;;;6.00;4.90;;;;;;;20.15;53.23;100008.53;5123910;28;20030;-71
2022/06/25 00:16:58;;;;;;;5.40;4.40;;;;;;;20.12;53.61;100011.34;5123581;28;20028;-70
2022/06/25 00:19:24;;;;;;;5.85;4.20;;;;;;;20.03;53.90;100010.09;5124105;28;20026;-71
2022/06/25 00:21:50;;;;;;;7.10;4.82;;;;;;;20.05;53.74;100006.41;5123771;28;20027;-71
2022/06/25 00:24:16;;;;;;;10.85;5.05;;;;;;;20.09;53.90;100011.50;5123840;28;20026;-71
2022/06/25 00:26:42;;;;;;;5.00;4.55;;;;;;;20.03;54.20;100023.25;5139672;28;20031;-70
2022/06/25 00:29:09;;;;;;;4.95;4.45;;;;;;;20.00;54.34;100016.31;5126301;28;20027;-71
2022/06/25 00:31:34;;;;;;;7.15;5.13;;;;;;;20.01;54.44;100020.66;5127796;28;20157;-71
2022/06/25 00:34:00;;;;;;;6.70;4.68;;;;;;;19.96;54.54;100024.47;5127649;28;20024;-71
2022/06/25 00:36:25;;;;;;;7.13;4.95;;;;;;;19.96;54.45;100024.47;5127618;28;20042;-71
2022/06/25 00:38:50;;;;;;;5.68;4.57;;;;;;;19.86;54.96;100013.56;5127994;28;20024;-71
2022/06/25 00:41:16;;;;;;;7.07;4.25;;;;;;;19.95;54.67;100026.28;5127693;28;20235;-71
2022/06/25 00:43:41;;;;;;;5.93;4.78;;;;;;;19.91;54.83;100030.00;5127674;28;20020;-71
2022/06/25 00:46:07;;;;;;;5.78;5.18;;;;;;;19.88;54.88;100030.16;5127494;28;20583;-71
2022/06/25 00:48:32;;;;;;;7.70;5.15;;;;;;;19.85;55.21;100030.31;5127255;28;20030;-71
2022/06/25 00:50:58;;;;;;;8.70;5.15;;;;;;;19.84;55.14;100028.63;5127098;28;20199;-70
2022/06/25 00:53:33;;;;;;;5.28;4.78;;;;;;;19.85;55.26;100025.06;5127458;28;20425;-71
2022/06/25 00:56:00;;;;;;;7.22;4.75;;;;;;;19.79;55.33;100027.06;5127478;28;20318;-71
2022/06/25 00:58:30;;;;;;;8.55;4.78;;;;;;;19.77;55.62;100018.44;5127466;28;20150;-70
2022/06/25 01:00:55;;;;;;;5.70;4.53;;;;;;;19.86;55.44;100026.75;5127241;28;20065;-71
2022/06/25 01:03:20;;;;;;;7.57;4.95;;;;;;;19.85;55.55;100027.69;5127210;28;20090;-71
2022/06/25 01:05:46;;;;;;;6.25;5.20;;;;;;;19.75;55.88;100030.81;5127204;28;20104;-71
2022/06/25 01:08:11;;;;;;;6.47;4.57;;;;;;;19.74;55.84;100028.25;5127248;28;20036;-71
2022/06/25 01:10:37;;;;;;;5.38;4.55;;;;;;;19.70;56.08;100022.31;5108927;28;20076;-70
2022/06/25 01:13:02;;;;;;;6.47;4.45;;;;;;;19.69;56.28;100025.88;5127302;28;20011;-71
2022/06/25 01:15:28;;;;;;;5.07;4.25;;;;;;;19.68;55.97;100017.13;5126959;28;20031;-71
2022/06/25 01:17:53;;;;;;;6.13;5.30;;;;;;;19.68;56.12;100021.56;5126667;28;20016;-71
2022/06/25 01:20:23;;;;;;;5.93;5.03;;;;;;;19.69;56.13;100017.97;5127238;28;20019;-71
2022/06/25 01:22:49;;;;;;;7.10;4.70;;;;;;;19.65;56.29;100014.66;5127033;28;20023;-71
2022/06/25 01:25:16;;;;;;;6.45;4.97;;;;;;;19.61;56.54;100020.16;5126820;28;20073;-70
2022/06/25 01:27:42;;;;;;;5.00;4.50;;;;;;;19.56;56.72;100013.38;5126865;28;20027;-71
2022/06/25 01:30:09;;;;;;;5.20;4.53;;;;;;;19.55;56.81;100023.97;5126706;28;20558;-71
2022/06/25 01:32:35;;;;;;;5.00;4.45;;;;;;;19.54;56.69;100020.50;5126464;28;20050;-70
2022/06/25 01:35:00;;;;;;;5.22;4.53;;;;;;;19.51;56.99;100015.38;5126763;28;20023;-71
2022/06/25 01:37:26;;;;;;;5.40;4.88;;;;;;;19.50;57.15;100015.47;5126672;28;20049;-70
2022/06/25 01:39:56;;;;;;;5.38;4.80;;;;;;;19.46;57.22;100025.28;5126034;28;20034;-70
2022/06/25 01:45:08;;;;;;;7.18;5.18;;;;;;;19.41;57.52;100019.44;5126698;28;20050;-71
2022/06/25 01:47:34;;;;;;;5.55;4.88;;;;;;;19.44;57.22;100016.66;5126114;28;20027;-71
2022/06/25 01:49:59;;;;;;;5.25;4.63;;;;;;;19.46;57.23;100011.31;5126459;28;20020;-71
2022/06/25 01:52:24;;;;;;;6.25;4.70;;;;;;;19.42;57.40;100023.75;5125901;28;20036;-71
2022/06/25 01:54:50;;;;;;;5.90;4.40;;;;;;;19.40;57.40;100013.31;5126463;28;20073;-72
2022/06/25 01:57:15;;;;;;;7.88;4.95;;;;;;;19.41;57.52;100016.81;5126120;28;20023;-71
2022/06/25 01:59:40;;;;;;;7.53;5.10;;;;;;;19.38;57.54;100022.19;5126065;28;20132;-70
2022/06/25 02:02:06;;;;;;;7.40;5.18;;;;;;;19.37;57.74;100031.03;5125742;28;20138;-70
2022/06/25 02:04:31;;;;;;;9.75;5.00;;;;;;;19.31;57.81;100027.78;5126189;28;20030;-71
2022/06/25 02:06:57;;;;;;;5.75;4.35;;;;;;;19.35;57.93;100027.63;5126077;28;20592;-71
2022/06/25 02:09:22;;;;;;;5.97;4.75;;;;;;;19.37;57.76;100037.16;5126035;28;20038;-70
2022/06/25 02:11:48;;;;;;;4.97;4.43;;;;;;;19.29;58.07;100028.81;5125908;28;20097;-71
2022/06/25 02:14:14;;;;;;;8.07;5.10;;;;;;;19.28;58.16;100022.69;5125899;28;20072;-70
2022/06/25 02:16:39;;;;;;;6.22;4.93;;;;;;;19.29;58.21;100026.16;5125714;28;20020;-70
2022/06/25 02:19:05;;;;;;;5.60;4.78;;;;;;;19.29;58.10;100019.13;5107327;28;20087;-71
2022/06/25 02:21:30;;;;;;;6.45;5.07;;;;;;;19.24;58.24;100007.13;5125786;28;20019;-71
2022/06/25 02:23:55;;;;;;;5.70;4.32;;;;;;;19.19;58.55;100016.13;5125783;28;20024;-71
2022/06/25 02:26:21;;;;;;;6.35;4.65;;;;;;;19.19;58.51;100010.00;5125658;28;20033;-70
2022/06/25 02:28:46;;;;;;;7.10;4.95;;;;;;;19.25;58.21;100012.31;5125750;28;20020;-72
2022/06/25 02:31:12;;;;;;;7.75;5.05;;;;;;;19.29;58.16;100015.66;5125496;28;20079;-70
2022/06/25 02:33:38;;;;;;;7.72;4.53;;;;;;;19.22;58.54;100025.63;5125238;28;20028;-70
2022/06/25 02:36:04;;;;;;;7.47;4.03;;;;;;;19.26;58.21;100018.44;5125464;28;20062;-70
2022/06/25 02:38:29;;;;;;;5.68;3.95;;;;;;;19.24;58.50;100038.72;5125490;28;20054;-70
2022/06/25 02:40:55;;;;;;;5.75;4.30;;;;;;;19.24;58.33;100039.56;5125575;28;20528;-71
2022/06/25 02:43:20;;;;;;;8.98;4.88;;;;;;;19.19;58.51;100034.53;5125433;28;20098;-71
2022/06/25 02:45:45;;;;;;;5.10;4.20;;;;;;;19.23;58.48;100032.63;5125274;28;20065;-71
2022/06/25 02:48:11;;;;;;;6.53;4.50;;;;;;;19.23;58.39;100045.78;5125135;28;20019;-71
2022/06/25 02:50:36;;;;;;;11.25;5.28;;;;;;;19.25;58.45;100035.16;5125289;28;20080;-71
2022/06/25 02:53:02;;;;;;;5.50;4.93;;;;;;;19.24;58.34;100007.13;5124247;28;20138;-71
2022/06/25 03:00:55;;;;;;;8.90;4.57;;;;;;;19.33;58.38;100019.81;5125070;28;20049;-71
2022/06/25 03:03:21;;;;;;;4.57;3.85;;;;;;;19.38;57.84;100027.47;5124849;28;20016;-71
2022/06/25 03:05:46;;;;;;;5.88;4.15;;;;;;;19.42;57.85;100032.53;5124883;28;20024;-70
2022/06/25 03:08:12;;;;;;;5.88;4.40;;;;;;;19.38;58.05;100038.00;5124970;28;20015;-71
2022/06/25 03:10:37;;;;;;;4.93;4.43;;;;;;;19.52;57.77;100037.31;5124776;28;20020;-71
2022/06/25 03:13:02;;;;;;;6.53;4.00;;;;;;;19.56;57.76;100020.41;5124798;28;20033;-70
2022/06/25 03:15:28;;;;;;;9.35;4.72;;;;;;;19.60;57.65;100027.19;5124646;28;20102;-71
2022/06/25 03:17:54;;;;;;;6.85;4.47;;;;;;;19.74;57.61;100026.50;5124574;28;20050;-71
2022/06/25 03:20:19;;;;;;;5.40;4.47;;;;;;;19.93;56.71;100018.47;5124737;28;20027;-71
2022/06/25 03:22:45;;;;;;;5.10;4.28;;;;;;;19.95;56.63;100021.00;5124465;28;20023;-71
2022/06/25 03:25:11;;;;;;;5.40;4.32;;;;;;;19.91;56.61;100028.22;5124754;28;20031;-71
2022/06/25 03:27:36;;;;;;;7.95;4.45;;;;;;;19.85;56.99;100031.19;5106227;28;20019;-71
2022/06/25 03:30:01;;;;;;;7.55;4.22;;;;;;;19.97;56.84;100029.66;5124613;28;20020;-71
2022/06/25 03:32:27;;;;;;;6.03;3.72;;;;;;;20.19;56.12;100032.00;5124163;28;20019;-71
2022/06/25 03:34:52;;;;;;;7.50;4.13;;;;;;;20.38;56.14;100017.81;5124459;28;20024;-71
2022/06/25 03:37:17;;;;;;;5.13;4.43;;;;;;;20.59;55.21;100024.59;5124280;28;20498;-71
2022/06/25 03:39:43;;;;;;;4.43;3.97;;;;;;;20.75;54.81;100017.50;5124217;28;20023;-71
2022/06/25 03:42:08;;;;;;;4.85;4.30;;;;;;;20.89;54.45;100013.22;5124380;28;20038;-71
2022/06/25 03:44:33;;;;;;;5.55;3.92;;;;;;;21.09;53.48;100021.75;5124442;28;20034;-71
2022/06/25 03:46:59;;;;;;;4.97;4.20;;;;;;;21.18;53.47;100015.97;5124015;28;20470;-71
2022/06/25 03:49:24;;;;;;;4.72;3.47;;;;;;;21.27;53.09;100014.56;5124310;28;20023;-71
2022/06/25 03:51:50;;;;;;;3.97;3.58;;;;;;;21.24;53.08;100020.88;5124054;28;20099;-71
2022/06/25 03:54:15;;;;;;;6.45;4.00;;;;;;;21.25;53.08;100025.22;5124206;28;20498;-70
2022/06/25 03:56:41;;;;;;;4.20;3.80;;;;;;;21.26;52.41;100042.72;5123950;28;20027;-71
2022/06/25 03:59:06;;;;;;;7.50;3.85;;;;;;;21.30;52.80;100031.06;5124214;28;20464;-71
2022/06/25 04:01:31;;;;;;;5.90;4.22;;;;;;;21.42;52.68;100033.91;5124108;28;20450;-71
2022/06/25 04:03:57;;;;;;;4.05;3.60;;;;;;;21.57;52.58;100029.47;5123603;28;20274;-71
2022/06/25 04:06:22;;;;;;;5.65;4.25;;;;;;;21.77;52.37;100049.41;5124045;28;20027;-71
2022/06/25 04:08:47;;;;;;;5.05;3.40;;;;;;;21.97;51.34;100049.13;5124299;28;20513;-71
2022/06/25 04:11:13;;;;;;;4.57;3.40;;;;;;;21.96;50.61;100045.66;5123937;28;20374;-71
2022/06/25 04:13:38;;;;;;;5.05;4.07;;;;;;;22.00;50.59;100049.78;5124242;28;20075;-71
2022/06/25 04:16:04;;;;;;;5.10;3.70;;;;;;;21.92;50.83;100052.06;5123841;28;20026;-71
2022/06/25 04:18:31;;;;;;;5.82;3.60;;;;;;;21.91;50.75;100056.53;5123872;28;20028;-71
2022/06/25 04:20:58;;;;;;;5.63;3.83;;;;;;;21.98;50.79;100056.13;5124093;28;20028;-71
2022/06/25 04:23:23;;;;;;;4.60;3.63;;;;;;;22.02;50.42;100058.47;5124007;28;20016;-72
2022/06/25 04:25:49;;;;;;;5.05;3.70;;;;;;;22.10;50.45;100059.78;5123916;28;20225;-71
2022/06/25 04:30:58;;;;;;;4.93;3.63;;;;;;;22.11;49.81;100040.34;5123926;28;20105;-71
2022/06/25 04:33:24;;;;;;;5.03;3.85;;;;;;;22.26;50.12;100064.97;5123540;28;20032;-71
2022/06/25 04:35:49;;;;;;;6.45;4.18;;;;;;;22.35;50.25;100063.53;5123807;28;20034;-70
2022/06/25 04:38:14;;;;;;;5.00;3.63;;;;;;;22.49;49.86;100060.84;5124026;28;20016;-71
2022/06/25 04:40:40;;;;;;;5.40;3.60;;;;;;;22.73;49.17;100057.56;5123702;28;20534;-71
2022/06/25 04:43:05;;;;;;;4.15;3.75;;;;;;;22.87;48.97;100053.19;5123703;28;20016;-70
2022/06/25 04:45:30;;;;;;;4.90;3.83;;;;;;;23.18;48.45;100064.34;5123840;28;20012;-69
2022/06/25 04:48:00;;;;;;;5.68;3.25;;;;;;;23.35;47.17;100062.38;5123411;28;20023;-69
2022/06/25 04:50:25;;;;;;;6.20;3.50;;;;;;;23.22;47.53;100063.22;5123746;28;20020;-69
2022/06/25 04:52:51;;;;;;;4.00;3.53;;;;;;;23.28;47.46;100067.25;5123419;28;20051;-70
2022/06/25 04:55:16;;;;;;;4.30;3.65;;;;;;;23.35;47.57;100068.53;5123533;28;20083;-70
2022/06/25 04:57:41;;;;;;;3.03;2.75;;;;;;;23.43;47.18;100067.19;5123495;28;20023;-70
2022/06/25 05:00:07;;;;;;;5.15;3.85;;;;;;;23.42;47.31;100061.03;5123488;28;20023;-70
2022/06/25 05:02:33;;;;;;;6.72;3.90;;;;;;;23.43;46.98;100067.19;5123250;28;20042;-70
2022/06/25 05:04:58;;;;;;;3.67;3.20;;;;;;;23.43;46.99;100075.97;5123403;28;20023;-70
2022/06/25 05:07:23;;;;;;;4.93;3.20;;;;;;;23.41;47.44;100077.88;5123566;28;20020;-69
2022/06/25 05:09:49;;;;;;;5.45;3.22;;;;;;;23.47;46.91;100066.00;5123524;28;20019;-70
2022/06/25 05:13:11;;;;;;;5.85;3.47;;;;;;;23.51;46.43;100076.28;5123308;28;20540;-69
2022/06/25 05:15:00;;;;;;;3.88;3.20;;;;;;;23.46;46.52;100059.03;5123297;28;20028;-70
2022/06/25 05:17:25;;;;;;;4.75;3.70;;;;;;;23.45;46.80;100078.53;5126762;28;20439;-70
2022/06/25 05:19:51;;;;;;;4.80;3.35;;;;;;;23.59;46.20;100072.28;5127122;28;20054;-70
2022/06/25 05:22:16;;;;;;;4.93;3.92;;;;;;;23.64;46.92;100076.28;5126817;28;20467;-69
2022/06/25 05:24:41;;;;;;;5.80;3.67;;;;;;;23.82;45.84;100083.91;5127072;28;20038;-70
2022/06/25 05:27:07;;;;;;;5.45;3.53;;;;;;;23.98;46.21;100089.00;5126741;28;20020;-70
2022/06/25 05:29:32;;;;;;;5.03;3.30;;;;;;;24.22;45.93;100088.25;5126988;28;20020;-70
2022/06/25 05:31:58;;;;;;;4.40;3.63;;;;;;;24.57;45.00;100084.00;5126670;28;20425;-69
2022/06/25 05:34:23;;;;;;;4.90;3.13;;;;;;;24.71;44.24;100088.28;5126703;28;20023;-69
2022/06/25 05:36:48;;;;;;;4.95;3.53;;;;;;;24.62;44.42;100092.47;5126392;28;20065;-72
2022/06/25 05:39:14;;;;;;;5.65;3.35;;;;;;;24.75;44.57;100096.88;5126710;28;20016;-69
2022/06/25 05:41:39;;;;;;;4.65;3.72;;;;;;;24.95;44.08;100089.28;5126455;28;20016;-69
2022/06/25 05:44:04;;;;;;;5.82;3.72;;;;;;;25.24;43.33;100100.34;5126641;28;20023;-69
2022/06/25 05:46:30;;;;;;;5.68;3.70;;;;;;;25.49;42.90;100102.97;5126365;28;20407;-69
2022/06/25 05:48:55;;;;;;;6.70;3.58;;;;;;;25.60;42.48;100112.75;5126203;28;20027;-68
2022/06/25 05:51:20;;;;;;;5.57;3.15;;;;;;;25.65;41.60;100118.63;5126106;28;20043;-69
2022/06/25 05:53:46;;;;;;;4.25;3.10;;;;;;;25.43;42.04;100116.72;5126258;28;20464;-70
2022/06/25 05:56:11;;;;;;;4.93;3.28;;;;;;;25.46;42.70;100116.50;5126201;28;20016;-70
2022/06/25 05:58:36;;;;;;;4.05;3.33;;;;;;;25.53;42.35;100104.41;5126494;28;20347;-71
2022/06/25 06:01:02;;;;;;;6.03;3.22;;;;;;;25.62;42.25;100106.38;5126198;28;20026;-70
2022/06/25 06:03:27;;;;;;;4.93;3.63;;;;;;;25.72;41.99;100114.50;5125929;28;20042;-70
2022/06/25 06:05:52;;;;;;;6.30;2.85;;;;;;;25.88;41.88;100115.13;5125959;28;20031;-70
2022/06/25 06:08:18;;;;;;;6.18;3.38;;;;;;;25.92;41.42;100120.09;5126010;28;20057;-70
2022/06/25 06:10:43;;;;;;;9.00;3.83;;;;;;;26.00;41.17;100116.81;5125827;28;20049;-70
2022/06/25 06:13:08;;;;;;;4.22;3.00;;;;;;;25.89;41.22;100106.19;5125984;28;20428;-71
2022/06/25 06:15:34;;;;;;;7.25;3.50;;;;;;;25.94;40.67;100123.44;5125732;28;20552;-71
2022/06/25 06:17:59;;;;;;;3.95;3.20;;;;;;;25.79;40.56;100122.00;5125740;28;20064;-70
2022/06/25 06:20:24;;;;;;;8.68;3.47;;;;;;;25.68;41.99;100129.00;5125754;28;20032;-71
2022/06/25 06:22:50;;;;;;;6.97;3.15;;;;;;;26.07;41.43;100127.84;5125808;28;20022;-71
2022/06/25 06:25:15;;;;;;;7.55;3.90;;;;;;;26.44;40.87;100140.06;5125598;28;20035;-70
2022/06/25 06:27:41;;;;;;;7.07;3.30;;;;;;;26.69;40.27;100127.41;5125569;28;20027;-71
2022/06/25 06:30:09;;;;;;;4.40;3.45;;;;;;;26.94;39.35;100138.69;5125560;28;20387;-70
2022/06/25 06:32:34;;;;;;;3.97;3.05;;;;;;;27.11;38.60;100132.00;5125252;28;20020;-71
2022/06/25 06:35:00;;;;;;;4.70;3.17;;;;;;;26.97;38.71;100136.63;5125572;28;20053;-71
2022/06/25 06:37:25;;;;;;;3.67;3.13;;;;;;;26.84;38.84;100136.78;5125256;28;20028;-70
2022/06/25 06:39:50;;;;;;;6.07;3.13;;;;;;;26.77;39.27;100142.75;5125388;28;20356;-70
2022/06/25 06:42:15;;;;;;;7.18;3.42;;;;;;;26.82;39.40;100146.72;5125313;28;20020;-70
2022/06/25 06:44:41;;;;;;;3.40;3.10;;;;;;;26.90;39.01;100145.25;5125294;28;20032;-70
2022/06/25 06:47:06;;;;;;;6.25;3.55;;;;;;;27.03;39.10;100147.78;5124965;28;20081;-69
2022/06/25 06:49:31;;;;;;;4.75;3.47;;;;;;;27.08;39.32;100148.25;5125204;28;20133;-70
2022/06/25 06:51:57;;;;;;;5.82;3.15;;;;;;;27.38;38.43;100156.47;5124904;28;20043;-70
2022/06/25 06:54:22;;;;;;;3.38;3.08;;;;;;;27.39;38.24;100158.16;5125241;28;20072;-71
2022/06/25 06:56:48;;;;;;;5.45;3.10;;;;;;;27.44;37.81;100155.97;5125208;28;20039;-70
2022/06/25 06:59:13;;;;;;;4.28;3.22;;;;;;;27.45;37.94;100160.31;5125064;28;20031;-70
2022/06/25 07:01:38;;;;;;;4.63;3.20;;;;;;;27.62;37.86;100155.38;5125030;28;20012;-71
2022/06/25 07:04:04;;;;;;;3.83;2.70;;;;;;;27.70;37.41;100158.28;5124693;28;20024;-71
2022/06/25 07:06:29;;;;;;;6.00;3.00;;;;;;;27.66;37.63;100160.31;5124923;28;20015;-70
2022/06/25 07:08:54;;;;;;;3.78;3.20;;;;;;;27.71;37.38;100159.94;5124964;28;20065;-71
2022/06/25 07:11:29;;;;;;;5.60;3.30;;;;;;;27.60;37.28;100180.31;5124709;28;20031;-71
2022/06/25 07:14:03;;;;;;;5.72;3.30;;;;;;;27.29;37.56;100168.75;5124838;28;20495;-70
2022/06/25 07:16:30;;;;;;;5.15;3.65;;;;;;;27.16;38.75;100175.09;5124531;28;20032;-70
2022/06/25 07:18:57;;;;;;;5.43;3.55;;;;;;;27.37;38.67;100171.63;5124525;28;20023;-70
2022/06/25 07:21:24;;;;;;;4.50;3.25;;;;;;;27.85;38.33;100177.44;5124394;28;20028;-69
2022/06/25 07:23:49;;;;;;;6.22;3.00;;;;;;;28.41;37.98;100183.34;5124479;28;20024;-70
2022/06/25 07:26:14;;;;;;;5.10;3.30;;;;;;;29.10;36.53;100177.31;5124468;28;20051;-70
2022/06/25 07:28:40;;;;;;;7.82;3.00;;;;;;;29.23;35.87;100178.84;5124329;28;20016;-70
2022/06/25 07:31:05;;;;;;;5.05;3.03;;;;;;;29.26;35.65;100176.75;5124343;28;20053;-70
2022/06/25 07:33:31;;;;;;;5.25;2.88;;;;;;;29.41;36.23;100179.81;5123961;28;20020;-69
2022/06/25 07:35:57;;;;;;;5.07;3.08;;;;;;;29.78;34.62;100191.59;5124197;28;20106;-69
2022/06/25 07:38:22;;;;;;;5.18;3.17;;;;;;;29.37;34.60;100185.59;5123781;28;20019;-69
2022/06/25 07:40:48;;;;;;;8.80;3.30;;;;;;;28.81;35.71;100186.94;5124113;28;20106;-69
2022/06/25 07:43:14;;;;;;;4.13;2.78;;;;;;;28.51;36.70;100183.38;5124084;28;20482;-70
2022/06/25 07:45:40;;;;;;;5.93;3.25;;;;;;;28.73;36.93;100192.13;5124064;28;20019;-69
2022/06/25 07:48:06;;;;;;;6.25;3.20;;;;;;;28.78;36.14;100194.38;5123906;28;20020;-70
2022/06/25 07:53:15;;;;;;;6.93;3.22;;;;;;;28.28;37.54;100188.88;5123772;28;20054;-70
2022/06/25 07:55:40;;;;;;;3.92;2.95;;;;;;;28.61;37.42;100191.38;5123847;28;20020;-69
2022/06/25 07:58:06;;;;;;;3.83;3.25;;;;;;;29.47;36.80;100193.59;5124007;28;20654;-69
2022/06/25 08:00:33;;;;;;;4.53;2.90;;;;;;;30.16;34.38;100193.47;5123850;28;20049;-70
2022/06/25 08:02:58;;;;;;;6.25;3.70;;;;;;;29.93;34.72;100193.81;5123677;28;20031;-69
2022/06/25 08:05:24;;;;;;;4.07;3.55;;;;;;;29.96;34.69;100203.38;5123894;28;20027;-70
2022/06/25 08:07:49;;;;;;;6.72;4.03;;;;;;;30.14;34.52;100198.97;5124037;28;20027;-69
2022/06/25 08:10:15;;;;;;;4.88;2.97;;;;;;;30.74;34.08;100196.88;5123889;28;20027;-69
2022/06/25 08:12:40;;;;;;;3.63;3.20;;;;;;;31.47;32.75;100196.09;5123959;28;20024;-68
2022/06/25 08:15:07;;;;;;;6.82;3.03;;;;;;;31.82;31.99;100198.84;5123937;28;20020;-69
2022/06/25 08:17:34;;;;;;;9.20;3.65;;;;;;;32.13;31.55;100209.09;5123614;28;20174;-68
2022/06/25 08:20:00;;;;;;;6.10;3.47;;;;;;;32.17;31.40;100196.22;5123987;28;20020;-68
2022/06/25 08:22:25;;;;;;;6.43;2.83;;;;;;;31.89;31.52;100195.38;5123777;28;20156;-71
2022/06/25 08:24:50;;;;;;;4.10;3.28;;;;;;;31.38;31.37;100200.53;5124052;28;20020;-68
2022/06/25 08:27:16;;;;;;;6.15;3.17;;;;;;;30.52;32.60;100198.97;5123629;28;20425;-68
2022/06/25 08:29:41;;;;;;;4.88;3.25;;;;;;;29.89;34.17;100206.66;5123664;28;20023;-68
2022/06/25 08:32:07;;;;;;;5.43;3.35;;;;;;;29.59;34.73;100203.19;5123559;28;20103;-66
2022/06/25 08:34:32;;;;;;;5.20;3.50;;;;;;;29.23;35.60;100208.25;5123650;28;20019;-69
2022/06/25 08:36:58;;;;;;;3.00;2.70;;;;;;;29.29;35.76;100207.69;5123573;28;20024;-68
2022/06/25 08:39:23;;;;;;;5.13;3.15;;;;;;;29.59;35.42;100192.50;5123796;28;20050;-68
2022/06/25 08:41:49;;;;;;;5.93;3.33;;;;;;;29.94;34.92;100207.06;5123603;28;20198;-69
2022/06/25 08:44:14;;;;;;;7.38;3.10;;;;;;;30.30;34.62;100192.19;5105354;28;20020;-69
2022/06/25 08:46:40;;;;;;;5.95;3.38;;;;;;;30.57;34.65;100201.22;5123229;28;20015;-69
2022/06/25 08:49:07;;;;;;;4.95;3.25;;;;;;;30.97;34.59;100198.31;5123423;28;20020;-69
2022/06/25 08:51:33;;;;;;;5.13;4.05;;;;;;;31.09;33.91;100207.78;5126036;28;20040;-68
2022/06/25 08:54:01;;;;;;;5.70;3.40;;;;;;;31.22;34.03;100204.72;5127403;28;20103;-69
2022/06/25 08:56:28;;;;;;;8.60;3.53;;;;;;;31.47;33.56;100201.47;5127326;28;20034;-69
2022/06/25 08:58:55;;;;;;;7.18;3.70;;;;;;;31.53;33.76;100198.16;5127364;28;20032;-69
2022/06/25 09:01:20;;;;;;;5.03;3.05;;;;;;;31.59;33.60;100197.53;5127067;28;20034;-69
2022/06/25 09:03:46;;;;;;;6.30;3.22;;;;;;;31.48;33.71;100200.44;5127063;28;20023;-69
2022/06/25 09:06:17;;;;;;;5.15;3.40;;;;;;;31.46;34.16;100199.75;5127182;28;20024;-68
2022/06/25 09:08:43;;;;;;;11.13;3.60;;;;;;;31.71;33.53;100194.59;5127219;28;20304;-68
2022/06/25 09:11:09;;;;;;;6.13;3.28;;;;;;;32.22;33.01;100183.16;5127190;28;20382;-69
2022/06/25 09:13:35;;;;;;;8.85;3.83;;;;;;;32.93;31.67;100187.38;5127169;28;20023;-70
2022/06/25 09:16:00;;;;;;;4.65;3.40;;;;;;;32.95;30.99;100190.75;5126987;28;20026;-69
2022/06/25 09:18:26;;;;;;;4.45;3.17;;;;;;;33.02;31.16;100192.63;5108500;28;20036;-69
2022/06/25 09:20:57;;;;;;;6.32;3.20;;;;;;;33.18;30.40;100198.22;5127088;28;20024;-69
2022/06/25 09:23:23;;;;;;;;;;;;;;;32.65;30.82;100202.78;5127264;28;20022;-69
2022/06/25 09:26:09;;;;;;;3.78;3.03;;;;;;;32.31;31.63;100217.09;5126761;28;19943;-68
2022/06/25 09:28:39;;;;;;;6.45;3.97;;;;;;;31.75;31.99;100207.53;5126987;28;20020;-69
2022/06/25 09:31:05;;;;;;;11.70;3.78;;;;;;;31.32;33.16;100214.53;5126781;28;20079;-70
2022/06/25 09:33:32;;;;;;;6.72;3.10;;;;;;;31.04;33.19;100215.44;5126426;28;20054;-70
2022/06/25 09:35:59;;;;;;;5.35;3.25;;;;;;;30.79;33.79;100215.19;5126555;28;20019;-69
2022/06/25 09:38:25;;;;;;;6.93;3.25;;;;;;;31.06;34.29;100210.78;5126648;28;20035;-69
2022/06/25 09:40:59;;;;;;;4.30;3.42;;;;;;;31.15;33.35;100209.03;5126489;28;20027;-69
2022/06/25 09:43:47;;;;;;;7.57;3.70;;;;;;;31.07;33.52;100217.00;5126464;28;20024;-69
2022/06/25 09:46:13;;;;;;;5.25;3.75;;;;;;;30.59;33.85;100212.63;5126447;28;20051;-69
2022/06/25 09:48:41;;;;;;;6.43;3.38;;;;;;;30.07;34.85;100216.59;5126121;28;20486;-69
2022/06/25 09:51:14;;;;;;;5.07;3.30;;;;;;;29.63;35.36;100215.31;5126224;28;20135;-69
2022/06/25 09:54:00;;;;;;;5.80;3.25;;;;;;;29.31;36.47;100222.59;5126096;28;20030;-69
2022/06/25 09:56:30;;;;;;;4.88;3.15;;;;;;;29.31;37.29;100217.25;5126317;28;20024;-69
2022/06/25 09:58:56;;;;;;;5.28;3.63;;;;;;;29.74;36.43;100210.78;5126560;28;20056;-69
2022/06/25 10:01:24;;;;;;;4.47;3.22;;;;;;;29.63;36.38;100215.31;5125720;28;20019;-69
2022/06/25 10:03:50;;;;;;;6.38;3.30;;;;;;;29.27;36.98;100220.34;5125913;28;20052;-69
2022/06/25 10:06:18;;;;;;;10.02;4.05;;;;;;;29.06;37.81;100213.28;5126179;28;20054;-70
2022/06/25 10:08:51;;;;;;;5.82;3.97;;;;;;;28.88;37.84;100216.63;5126145;28;20028;-69
2022/06/25 10:11:23;;;;;;;8.65;3.83;;;;;;;28.61;38.25;100214.59;5125890;28;20050;-69
2022/06/25 10:13:49;;;;;;;7.40;3.75;;;;;;;28.66;38.58;100217.69;5126097;28;20040;-69
2022/06/25 10:16:16;;;;;;;6.07;3.90;;;;;;;28.78;37.97;100221.09;5125857;28;20028;-69
2022/06/25 10:18:43;;;;;;;4.47;3.42;;;;;;;28.82;38.17;100219.81;5125665;28;20403;-69
2022/06/25 10:21:08;;;;;;;9.10;3.92;;;;;;;28.72;38.53;100233.19;5125932;28;20031;-71
2022/06/25 10:23:34;;;;;;;8.60;3.92;;;;;;;28.76;38.29;100225.72;5125788;28;20012;-69
2022/06/25 10:25:59;;;;;;;12.20;4.45;;;;;;;28.97;37.98;100227.47;5125695;28;20395;-70
2022/06/25 10:28:28;;;;;;;7.90;4.35;;;;;;;28.76;37.97;100221.22;5125750;28;20023;-69
2022/06/25 10:30:58;;;;;;;8.35;4.03;;;;;;;28.41;38.07;100226.03;5125643;28;20428;-70
2022/06/25 10:33:26;;;;;;;10.15;3.75;;;;;;;28.64;38.17;100219.66;5125327;28;20024;-70
2022/06/25 10:35:56;;;;;;;5.47;4.00;;;;;;;28.75;38.20;100227.56;5125441;28;20016;-69
2022/06/25 10:38:24;;;;;;;9.50;3.35;;;;;;;29.22;37.95;100227.94;5125560;28;20059;-70
2022/06/25 10:40:52;;;;;;;4.78;3.63;;;;;;;29.67;37.25;100232.75;5125415;28;20027;-69
2022/06/25 10:43:37;;;;;;;7.30;4.10;;;;;;;29.89;36.91;100233.41;5125494;28;20097;-69
2022/06/25 10:46:22;;;;;;;5.05;3.50;;;;;;;29.71;36.65;100237.81;5125230;28;20022;-69
2022/06/25 10:49:07;;;;;;;9.32;3.88;;;;;;;29.34;37.09;100236.66;5125057;28;20019;-69
2022/06/25 10:51:32;;;;;;;10.55;3.95;;;;;;;28.89;37.75;100234.34;5124990;28;20070;-69
2022/06/25 10:54:00;;;;;;;8.55;4.25;;;;;;;28.58;38.51;100242.38;5124979;28;20622;-70
2022/06/25 10:56:30;;;;;;;7.80;4.15;;;;;;;28.30;38.79;100237.63;5125143;28;20024;-70
2022/06/25 10:58:56;;;;;;;6.40;3.83;;;;;;;28.24;39.25;100258.66;5125344;28;20020;-70
2022/06/25 11:01:28;;;;;;;5.50;4.25;;;;;;;28.15;38.95;100253.13;5125094;28;20530;-69
2022/06/25 11:03:55;;;;;;;5.75;4.25;;;;;;;27.82;39.66;100253.22;5124933;28;20026;-70
2022/06/25 11:06:22;;;;;;;6.75;4.20;;;;;;;27.58;40.44;100253.44;5106510;28;20028;-70
2022/06/25 11:08:49;;;;;;;7.30;4.40;;;;;;;27.40;41.01;100247.78;5125089;28;20047;-69
2022/06/25 11:11:28;;;;;;;5.95;3.50;;;;;;;27.17;41.05;100248.75;5124925;28;20069;-69
2022/06/25 11:13:54;;;;;;;6.30;4.65;;;;;;;27.01;41.30;100249.16;5124094;28;20035;-70
2022/06/25 11:16:19;;;;;;;7.00;4.57;;;;;;;26.78;41.73;100251.81;5124774;28;20043;-70
2022/06/25 11:18:47;;;;;;;6.50;4.22;;;;;;;26.60;42.27;100254.97;5124553;28;20073;-70
2022/06/25 11:21:37;;;;;;;6.75;4.20;;;;;;;26.61;42.43;100259.31;5125059;28;20020;-69
2022/06/25 11:24:12;;;;;;;7.18;4.38;;;;;;;26.75;42.43;100260.03;5124786;28;20027;-70
2022/06/25 11:29:32;;;;;;;9.23;4.25;;;;;;;26.56;42.72;100261.50;5125003;28;20610;-70
2022/06/25 11:31:58;;;;;;;7.25;4.88;;;;;;;26.41;43.38;100260.88;5124609;28;20312;-69
2022/06/25 11:34:26;;;;;;;6.70;4.65;;;;;;;26.32;43.81;100264.25;5124333;28;20080;-69
2022/06/25 11:37:08;;;;;;;7.22;4.40;;;;;;;26.29;43.88;100264.47;5124360;28;20027;-70
2022/06/25 11:39:34;;;;;;;5.95;4.80;;;;;;;26.16;44.31;100269.88;5124283;28;20087;-69
2022/06/25 11:42:03;;;;;;;7.30;4.22;;;;;;;26.10;44.95;100264.06;5124245;28;20028;-69
2022/06/25 11:44:38;;;;;;;5.85;4.40;;;;;;;26.21;44.64;100257.94;5124304;28;20028;-69